sensor_id;sensor_type;location;lat;lon;timestamp;P1;durP1;ratioP1;P2;durP2;ratioP2
26536;SDS011;14204;51.262;5.488;2024-02-21T00:01:39;26.55;;;10.48;;
26536;SDS011;14204;51.262;5.488;2024-02-21T00:04:04;28.42;;;10.13;;
26536;SDS011;14204;51.262;5.488;2024-02-21T00:06:31;32.22;;;12.00;;
26536;SDS011;14204;51.262;5.488;2024-02-21T00:08:57;29.67;;;10.23;;
26536;SDS011;14204;51.262;5.488;2024-02-21T00:11:22;32.83;;;11.00;;
26536;SDS011;14204;51.262;5.488;2024-02-21T00:13:48;20.45;;;9.60;;
26536;SDS011;14204;51.262;5.488;2024-02-21T00:16:15;32.08;;;10.10;;
26536;SDS011;14204;51.262;5.488;2024-02-21T00:18:41;28.88;;;10.50;;
26536;SDS011;14204;51.262;5.488;2024-02-21T00:21:07;36.30;;;10.30;;
26536;SDS011;14204;51.262;5.488;2024-02-21T00:23:32;41.90;;;9.82;;
26536;SDS011;14204;51.262;5.488;2024-02-21T00:25:58;30.17;;;9.68;;
26536;SDS011;14204;51.262;5.488;2024-02-21T00:28:24;35.38;;;11.52;;
26536;SDS011;14204;51.262;5.488;2024-02-21T00:30:49;29.85;;;10.23;;
26536;SDS011;14204;51.262;5.488;2024-02-21T00:33:16;19.67;;;8.82;;
26536;SDS011;14204;51.262;5.488;2024-02-21T00:35:42;24.80;;;9.13;;
26536;SDS011;14204;51.262;5.488;2024-02-21T00:38:08;27.83;;;9.43;;
26536;SDS011;14204;51.262;5.488;2024-02-21T00:40:34;23.88;;;9.98;;
26536;SDS011;14204;51.262;5.488;2024-02-21T00:43:00;20.55;;;9.73;;
26536;SDS011;14204;51.262;5.488;2024-02-21T00:45:25;24.63;;;8.82;;
26536;SDS011;14204;51.262;5.488;2024-02-21T00:47:51;23.20;;;9.18;;
26536;SDS011;14204;51.262;5.488;2024-02-21T00:50:17;29.60;;;9.77;;
26536;SDS011;14204;51.262;5.488;2024-02-21T00:52:43;23.98;;;9.15;;
26536;SDS011;14204;51.262;5.488;2024-02-21T00:55:09;30.70;;;8.70;;
26536;SDS011;14204;51.262;5.488;2024-02-21T00:57:35;22.65;;;8.18;;
26536;SDS011;14204;51.262;5.488;2024-02-21T01:00:02;23.80;;;8.80;;
26536;SDS011;14204;51.262;5.488;2024-02-21T01:02:28;21.75;;;8.45;;
26536;SDS011;14204;51.262;5.488;2024-02-21T01:04:56;27.70;;;9.20;;
26536;SDS011;14204;51.262;5.488;2024-02-21T01:07:22;22.42;;;9.18;;
26536;SDS011;14204;51.262;5.488;2024-02-21T01:09:48;24.45;;;9.27;;
26536;SDS011;14204;51.262;5.488;2024-02-21T01:12:13;23.83;;;9.40;;
26536;SDS011;14204;51.262;5.488;2024-02-21T01:14:39;25.05;;;9.23;;
26536;SDS011;14204;51.262;5.488;2024-02-21T01:17:05;29.52;;;10.23;;
26536;SDS011;14204;51.262;5.488;2024-02-21T01:19:31;23.77;;;9.25;;
26536;SDS011;14204;51.262;5.488;2024-02-21T01:21:56;27.58;;;9.35;;
26536;SDS011;14204;51.262;5.488;2024-02-21T01:24:22;23.77;;;9.50;;
26536;SDS011;14204;51.262;5.488;2024-02-21T01:26:49;28.38;;;9.18;;
26536;SDS011;14204;51.262;5.488;2024-02-21T01:29:14;30.25;;;9.55;;
26536;SDS011;14204;51.262;5.488;2024-02-21T01:31:40;28.50;;;9.80;;
26536;SDS011;14204;51.262;5.488;2024-02-21T01:34:06;28.83;;;10.90;;
26536;SDS011;14204;51.262;5.488;2024-02-21T01:36:31;24.23;;;9.88;;
26536;SDS011;14204;51.262;5.488;2024-02-21T01:38:57;21.58;;;9.45;;
26536;SDS011;14204;51.262;5.488;2024-02-21T01:41:23;19.75;;;8.98;;
26536;SDS011;14204;51.262;5.488;2024-02-21T01:43:49;23.38;;;10.73;;
26536;SDS011;14204;51.262;5.488;2024-02-21T01:46:15;25.52;;;10.02;;
26536;SDS011;14204;51.262;5.488;2024-02-21T01:48:41;22.85;;;9.50;;
26536;SDS011;14204;51.262;5.488;2024-02-21T01:51:06;25.95;;;11.32;;
26536;SDS011;14204;51.262;5.488;2024-02-21T01:53:34;27.80;;;11.32;;
26536;SDS011;14204;51.262;5.488;2024-02-21T01:56:02;23.08;;;10.40;;
26536;SDS011;14204;51.262;5.488;2024-02-21T01:58:30;20.88;;;8.98;;
26536;SDS011;14204;51.262;5.488;2024-02-21T02:00:58;25.40;;;10.27;;
26536;SDS011;14204;51.262;5.488;2024-02-21T02:03:24;26.98;;;10.43;;
26536;SDS011;14204;51.262;5.488;2024-02-21T02:05:51;21.38;;;10.30;;
26536;SDS011;14204;51.262;5.488;2024-02-21T02:08:18;24.40;;;9.65;;
26536;SDS011;14204;51.262;5.488;2024-02-21T02:10:44;28.00;;;9.85;;
26536;SDS011;14204;51.262;5.488;2024-02-21T02:13:10;20.38;;;10.02;;
26536;SDS011;14204;51.262;5.488;2024-02-21T02:15:37;27.50;;;10.55;;
26536;SDS011;14204;51.262;5.488;2024-02-21T02:18:10;27.27;;;11.18;;
26536;SDS011;14204;51.262;5.488;2024-02-21T02:20:37;26.45;;;10.15;;
26536;SDS011;14204;51.262;5.488;2024-02-21T02:23:45;21.63;;;10.18;;
26536;SDS011;14204;51.262;5.488;2024-02-21T02:25:56;20.33;;;10.13;;
26536;SDS011;14204;51.262;5.488;2024-02-21T02:28:22;19.85;;;9.73;;
26536;SDS011;14204;51.262;5.488;2024-02-21T02:30:49;26.85;;;11.70;;
26536;SDS011;14204;51.262;5.488;2024-02-21T02:33:14;32.20;;;12.65;;
26536;SDS011;14204;51.262;5.488;2024-02-21T02:35:42;30.80;;;11.68;;
26536;SDS011;14204;51.262;5.488;2024-02-21T02:38:08;26.38;;;12.27;;
26536;SDS011;14204;51.262;5.488;2024-02-21T02:40:34;31.17;;;12.98;;
26536;SDS011;14204;51.262;5.488;2024-02-21T02:43:01;25.05;;;12.00;;
26536;SDS011;14204;51.262;5.488;2024-02-21T02:45:26;28.88;;;12.65;;
26536;SDS011;14204;51.262;5.488;2024-02-21T02:47:52;30.75;;;13.32;;
26536;SDS011;14204;51.262;5.488;2024-02-21T02:50:19;28.23;;;13.52;;
26536;SDS011;14204;51.262;5.488;2024-02-21T02:52:45;29.27;;;12.60;;
26536;SDS011;14204;51.262;5.488;2024-02-21T02:55:11;23.67;;;12.00;;
26536;SDS011;14204;51.262;5.488;2024-02-21T02:57:37;25.52;;;11.85;;
26536;SDS011;14204;51.262;5.488;2024-02-21T03:00:03;31.05;;;12.27;;
26536;SDS011;14204;51.262;5.488;2024-02-21T03:02:29;29.58;;;12.30;;
26536;SDS011;14204;51.262;5.488;2024-02-21T03:04:56;26.38;;;12.57;;
26536;SDS011;14204;51.262;5.488;2024-02-21T03:07:23;29.85;;;11.73;;
26536;SDS011;14204;51.262;5.488;2024-02-21T03:09:50;27.75;;;12.50;;
26536;SDS011;14204;51.262;5.488;2024-02-21T03:12:16;28.58;;;11.43;;
26536;SDS011;14204;51.262;5.488;2024-02-21T03:14:49;26.90;;;12.48;;
26536;SDS011;14204;51.262;5.488;2024-02-21T03:17:15;26.58;;;10.88;;
26536;SDS011;14204;51.262;5.488;2024-02-21T03:19:41;17.27;;;10.10;;
26536;SDS011;14204;51.262;5.488;2024-02-21T03:22:07;26.13;;;10.73;;
26536;SDS011;14204;51.262;5.488;2024-02-21T03:24:32;26.20;;;10.57;;
26536;SDS011;14204;51.262;5.488;2024-02-21T03:26:58;24.33;;;10.75;;
26536;SDS011;14204;51.262;5.488;2024-02-21T03:29:24;22.45;;;10.70;;
26536;SDS011;14204;51.262;5.488;2024-02-21T03:31:50;24.30;;;10.10;;
26536;SDS011;14204;51.262;5.488;2024-02-21T03:34:16;19.88;;;10.95;;
26536;SDS011;14204;51.262;5.488;2024-02-21T03:36:41;30.80;;;11.75;;
26536;SDS011;14204;51.262;5.488;2024-02-21T03:39:07;26.48;;;10.88;;
26536;SDS011;14204;51.262;5.488;2024-02-21T03:41:34;25.15;;;11.43;;
26536;SDS011;14204;51.262;5.488;2024-02-21T03:44:00;28.67;;;11.73;;
26536;SDS011;14204;51.262;5.488;2024-02-21T03:46:26;27.15;;;11.90;;
26536;SDS011;14204;51.262;5.488;2024-02-21T03:48:52;25.90;;;12.52;;
26536;SDS011;14204;51.262;5.488;2024-02-21T03:51:18;21.20;;;11.25;;
26536;SDS011;14204;51.262;5.488;2024-02-21T03:53:44;26.58;;;10.85;;
26536;SDS011;14204;51.262;5.488;2024-02-21T03:56:10;31.30;;;11.50;;
26536;SDS011;14204;51.262;5.488;2024-02-21T03:58:35;25.35;;;10.88;;
26536;SDS011;14204;51.262;5.488;2024-02-21T04:01:01;23.90;;;11.38;;
26536;SDS011;14204;51.262;5.488;2024-02-21T04:03:27;31.23;;;12.52;;
26536;SDS011;14204;51.262;5.488;2024-02-21T04:05:53;26.27;;;11.60;;
26536;SDS011;14204;51.262;5.488;2024-02-21T04:08:19;27.40;;;11.50;;
26536;SDS011;14204;51.262;5.488;2024-02-21T04:10:45;32.47;;;12.32;;
26536;SDS011;14204;51.262;5.488;2024-02-21T04:13:10;23.83;;;10.65;;
26536;SDS011;14204;51.262;5.488;2024-02-21T04:15:36;23.73;;;10.90;;
26536;SDS011;14204;51.262;5.488;2024-02-21T04:18:02;27.23;;;10.85;;
26536;SDS011;14204;51.262;5.488;2024-02-21T04:20:28;23.05;;;11.23;;
26536;SDS011;14204;51.262;5.488;2024-02-21T04:22:54;20.92;;;10.55;;
26536;SDS011;14204;51.262;5.488;2024-02-21T04:25:20;26.35;;;11.13;;
26536;SDS011;14204;51.262;5.488;2024-02-21T04:27:46;27.30;;;11.02;;
26536;SDS011;14204;51.262;5.488;2024-02-21T04:30:12;22.40;;;10.73;;
26536;SDS011;14204;51.262;5.488;2024-02-21T04:32:38;20.88;;;10.35;;
26536;SDS011;14204;51.262;5.488;2024-02-21T04:35:04;21.92;;;11.13;;
26536;SDS011;14204;51.262;5.488;2024-02-21T04:37:30;26.02;;;10.77;;
26536;SDS011;14204;51.262;5.488;2024-02-21T04:39:56;22.25;;;10.23;;
26536;SDS011;14204;51.262;5.488;2024-02-21T04:42:21;27.20;;;11.73;;
26536;SDS011;14204;51.262;5.488;2024-02-21T04:44:47;23.30;;;10.85;;
26536;SDS011;14204;51.262;5.488;2024-02-21T04:47:13;20.83;;;9.57;;
26536;SDS011;14204;51.262;5.488;2024-02-21T04:49:39;24.65;;;10.52;;
26536;SDS011;14204;51.262;5.488;2024-02-21T04:52:05;19.88;;;9.02;;
26536;SDS011;14204;51.262;5.488;2024-02-21T04:54:31;26.33;;;10.48;;
26536;SDS011;14204;51.262;5.488;2024-02-21T04:56:56;29.60;;;12.20;;
26536;SDS011;14204;51.262;5.488;2024-02-21T04:59:22;29.33;;;10.65;;
26536;SDS011;14204;51.262;5.488;2024-02-21T05:01:48;20.77;;;9.10;;
26536;SDS011;14204;51.262;5.488;2024-02-21T05:04:13;29.60;;;10.77;;
26536;SDS011;14204;51.262;5.488;2024-02-21T05:06:39;20.10;;;9.65;;
26536;SDS011;14204;51.262;5.488;2024-02-21T05:09:06;25.77;;;10.43;;
26536;SDS011;14204;51.262;5.488;2024-02-21T05:11:33;17.98;;;8.85;;
26536;SDS011;14204;51.262;5.488;2024-02-21T05:13:59;21.50;;;9.55;;
26536;SDS011;14204;51.262;5.488;2024-02-21T05:16:25;19.25;;;9.95;;
26536;SDS011;14204;51.262;5.488;2024-02-21T05:18:51;21.73;;;10.25;;
26536;SDS011;14204;51.262;5.488;2024-02-21T05:21:16;22.33;;;10.52;;
26536;SDS011;14204;51.262;5.488;2024-02-21T05:23:42;27.80;;;9.77;;
26536;SDS011;14204;51.262;5.488;2024-02-21T05:26:08;19.90;;;10.50;;
26536;SDS011;14204;51.262;5.488;2024-02-21T05:28:34;23.58;;;10.55;;
26536;SDS011;14204;51.262;5.488;2024-02-21T05:31:00;24.52;;;10.57;;
26536;SDS011;14204;51.262;5.488;2024-02-21T05:33:26;17.92;;;9.07;;
26536;SDS011;14204;51.262;5.488;2024-02-21T05:35:52;24.27;;;9.52;;
26536;SDS011;14204;51.262;5.488;2024-02-21T05:38:18;26.15;;;11.43;;
26536;SDS011;14204;51.262;5.488;2024-02-21T05:40:46;18.67;;;9.23;;
26536;SDS011;14204;51.262;5.488;2024-02-21T05:43:13;18.05;;;9.93;;
26536;SDS011;14204;51.262;5.488;2024-02-21T05:45:38;23.38;;;9.95;;
26536;SDS011;14204;51.262;5.488;2024-02-21T05:48:04;21.05;;;9.52;;
26536;SDS011;14204;51.262;5.488;2024-02-21T05:50:30;22.95;;;11.43;;
26536;SDS011;14204;51.262;5.488;2024-02-21T05:52:57;26.98;;;11.30;;
26536;SDS011;14204;51.262;5.488;2024-02-21T05:55:22;19.55;;;10.43;;
26536;SDS011;14204;51.262;5.488;2024-02-21T05:57:48;23.85;;;10.73;;
26536;SDS011;14204;51.262;5.488;2024-02-21T06:00:14;27.60;;;12.23;;
26536;SDS011;14204;51.262;5.488;2024-02-21T06:02:40;28.98;;;11.85;;
26536;SDS011;14204;51.262;5.488;2024-02-21T06:05:07;26.95;;;12.35;;
26536;SDS011;14204;51.262;5.488;2024-02-21T06:07:36;27.98;;;12.00;;
26536;SDS011;14204;51.262;5.488;2024-02-21T06:10:01;26.02;;;11.48;;
26536;SDS011;14204;51.262;5.488;2024-02-21T06:12:28;23.85;;;12.73;;
26536;SDS011;14204;51.262;5.488;2024-02-21T06:14:53;26.48;;;12.98;;
26536;SDS011;14204;51.262;5.488;2024-02-21T06:17:19;27.83;;;13.05;;
26536;SDS011;14204;51.262;5.488;2024-02-21T06:19:45;24.70;;;11.35;;
26536;SDS011;14204;51.262;5.488;2024-02-21T06:22:10;29.80;;;12.07;;
26536;SDS011;14204;51.262;5.488;2024-02-21T06:24:36;26.50;;;11.95;;
26536;SDS011;14204;51.262;5.488;2024-02-21T06:27:06;25.30;;;11.77;;
26536;SDS011;14204;51.262;5.488;2024-02-21T06:29:32;26.23;;;11.88;;
26536;SDS011;14204;51.262;5.488;2024-02-21T06:31:58;25.20;;;11.73;;
26536;SDS011;14204;51.262;5.488;2024-02-21T06:34:24;22.42;;;12.02;;
26536;SDS011;14204;51.262;5.488;2024-02-21T06:36:50;27.70;;;12.10;;
26536;SDS011;14204;51.262;5.488;2024-02-21T06:39:16;24.10;;;11.23;;
26536;SDS011;14204;51.262;5.488;2024-02-21T06:41:42;26.08;;;11.75;;
26536;SDS011;14204;51.262;5.488;2024-02-21T06:44:07;24.25;;;11.10;;
26536;SDS011;14204;51.262;5.488;2024-02-21T06:46:33;27.80;;;11.35;;
26536;SDS011;14204;51.262;5.488;2024-02-21T06:48:59;25.42;;;12.73;;
26536;SDS011;14204;51.262;5.488;2024-02-21T06:51:26;28.02;;;10.95;;
26536;SDS011;14204;51.262;5.488;2024-02-21T06:53:52;25.67;;;10.50;;
26536;SDS011;14204;51.262;5.488;2024-02-21T06:56:18;22.58;;;9.93;;
26536;SDS011;14204;51.262;5.488;2024-02-21T06:58:44;20.00;;;10.30;;
26536;SDS011;14204;51.262;5.488;2024-02-21T07:01:10;22.48;;;10.05;;
26536;SDS011;14204;51.262;5.488;2024-02-21T07:03:36;16.52;;;10.30;;
26536;SDS011;14204;51.262;5.488;2024-02-21T07:06:02;20.73;;;10.40;;
26536;SDS011;14204;51.262;5.488;2024-02-21T07:08:28;16.42;;;8.75;;
26536;SDS011;14204;51.262;5.488;2024-02-21T07:10:54;20.27;;;8.98;;
26536;SDS011;14204;51.262;5.488;2024-02-21T07:13:19;16.90;;;9.43;;
26536;SDS011;14204;51.262;5.488;2024-02-21T07:15:46;19.27;;;8.48;;
26536;SDS011;14204;51.262;5.488;2024-02-21T07:18:13;14.25;;;8.93;;
26536;SDS011;14204;51.262;5.488;2024-02-21T07:20:39;19.35;;;8.88;;
26536;SDS011;14204;51.262;5.488;2024-02-21T07:23:06;16.48;;;9.23;;
26536;SDS011;14204;51.262;5.488;2024-02-21T07:25:32;18.33;;;9.48;;
26536;SDS011;14204;51.262;5.488;2024-02-21T07:27:58;12.15;;;8.00;;
26536;SDS011;14204;51.262;5.488;2024-02-21T07:30:24;13.32;;;8.77;;
26536;SDS011;14204;51.262;5.488;2024-02-21T07:32:50;12.90;;;7.93;;
26536;SDS011;14204;51.262;5.488;2024-02-21T07:35:17;15.15;;;7.63;;
26536;SDS011;14204;51.262;5.488;2024-02-21T07:37:43;12.30;;;7.22;;
26536;SDS011;14204;51.262;5.488;2024-02-21T07:40:15;11.20;;;6.80;;
26536;SDS011;14204;51.262;5.488;2024-02-21T07:42:42;18.30;;;7.50;;
26536;SDS011;14204;51.262;5.488;2024-02-21T07:45:08;11.63;;;7.15;;
26536;SDS011;14204;51.262;5.488;2024-02-21T07:47:34;15.70;;;8.13;;
26536;SDS011;14204;51.262;5.488;2024-02-21T07:50:00;14.32;;;7.45;;
26536;SDS011;14204;51.262;5.488;2024-02-21T07:52:26;17.42;;;7.93;;
26536;SDS011;14204;51.262;5.488;2024-02-21T07:54:51;18.05;;;9.00;;
26536;SDS011;14204;51.262;5.488;2024-02-21T07:57:17;16.35;;;7.88;;
26536;SDS011;14204;51.262;5.488;2024-02-21T07:59:43;13.57;;;8.48;;
26536;SDS011;14204;51.262;5.488;2024-02-21T08:02:09;14.45;;;8.10;;
26536;SDS011;14204;51.262;5.488;2024-02-21T08:04:34;18.77;;;8.73;;
26536;SDS011;14204;51.262;5.488;2024-02-21T08:07:00;15.93;;;8.85;;
26536;SDS011;14204;51.262;5.488;2024-02-21T08:09:29;13.80;;;8.10;;
26536;SDS011;14204;51.262;5.488;2024-02-21T08:11:55;16.48;;;8.27;;
26536;SDS011;14204;51.262;5.488;2024-02-21T08:14:21;16.02;;;8.27;;
26536;SDS011;14204;51.262;5.488;2024-02-21T08:16:47;17.98;;;8.38;;
26536;SDS011;14204;51.262;5.488;2024-02-21T08:19:13;14.82;;;8.57;;
26536;SDS011;14204;51.262;5.488;2024-02-21T08:21:39;18.98;;;7.80;;
26536;SDS011;14204;51.262;5.488;2024-02-21T08:24:04;15.57;;;8.38;;
26536;SDS011;14204;51.262;5.488;2024-02-21T08:26:30;18.08;;;8.68;;
26536;SDS011;14204;51.262;5.488;2024-02-21T08:28:56;14.65;;;8.52;;
26536;SDS011;14204;51.262;5.488;2024-02-21T08:31:26;12.93;;;8.07;;
26536;SDS011;14204;51.262;5.488;2024-02-21T08:33:59;16.17;;;8.95;;
26536;SDS011;14204;51.262;5.488;2024-02-21T08:36:30;19.90;;;9.60;;
26536;SDS011;14204;51.262;5.488;2024-02-21T08:38:57;16.88;;;10.65;;
26536;SDS011;14204;51.262;5.488;2024-02-21T08:41:26;21.85;;;11.32;;
26536;SDS011;14204;51.262;5.488;2024-02-21T08:43:52;22.38;;;10.52;;
26536;SDS011;14204;51.262;5.488;2024-02-21T08:46:19;20.42;;;11.35;;
26536;SDS011;14204;51.262;5.488;2024-02-21T08:48:46;19.50;;;10.00;;
26536;SDS011;14204;51.262;5.488;2024-02-21T08:51:12;21.85;;;10.07;;
26536;SDS011;14204;51.262;5.488;2024-02-21T08:53:38;19.67;;;10.80;;
26536;SDS011;14204;51.262;5.488;2024-02-21T08:56:04;17.73;;;10.10;;
26536;SDS011;14204;51.262;5.488;2024-02-21T08:58:30;23.85;;;10.90;;
26536;SDS011;14204;51.262;5.488;2024-02-21T09:00:56;17.80;;;9.63;;
26536;SDS011;14204;51.262;5.488;2024-02-21T09:03:22;19.52;;;9.93;;
26536;SDS011;14204;51.262;5.488;2024-02-21T09:05:48;17.38;;;8.90;;
26536;SDS011;14204;51.262;5.488;2024-02-21T09:08:14;17.67;;;9.27;;
26536;SDS011;14204;51.262;5.488;2024-02-21T09:10:40;18.45;;;9.35;;
26536;SDS011;14204;51.262;5.488;2024-02-21T09:13:05;15.38;;;8.40;;
26536;SDS011;14204;51.262;5.488;2024-02-21T09:15:33;17.10;;;9.13;;
26536;SDS011;14204;51.262;5.488;2024-02-21T09:17:58;18.60;;;7.63;;
26536;SDS011;14204;51.262;5.488;2024-02-21T09:20:24;19.15;;;7.65;;
26536;SDS011;14204;51.262;5.488;2024-02-21T09:22:50;13.65;;;7.60;;
26536;SDS011;14204;51.262;5.488;2024-02-21T09:25:16;16.65;;;8.15;;
26536;SDS011;14204;51.262;5.488;2024-02-21T09:27:43;18.08;;;7.28;;
26536;SDS011;14204;51.262;5.488;2024-02-21T09:30:10;19.20;;;7.75;;
26536;SDS011;14204;51.262;5.488;2024-02-21T09:32:36;15.73;;;7.35;;
26536;SDS011;14204;51.262;5.488;2024-02-21T09:35:02;16.73;;;7.38;;
26536;SDS011;14204;51.262;5.488;2024-02-21T09:37:31;12.63;;;6.60;;
26536;SDS011;14204;51.262;5.488;2024-02-21T09:39:57;11.85;;;6.95;;
26536;SDS011;14204;51.262;5.488;2024-02-21T09:42:24;14.25;;;7.13;;
26536;SDS011;14204;51.262;5.488;2024-02-21T09:45:02;19.10;;;7.55;;
26536;SDS011;14204;51.262;5.488;2024-02-21T09:47:50;15.82;;;7.20;;
26536;SDS011;14204;51.262;5.488;2024-02-21T09:50:19;9.48;;;6.40;;
26536;SDS011;14204;51.262;5.488;2024-02-21T09:52:48;13.43;;;6.25;;
26536;SDS011;14204;51.262;5.488;2024-02-21T09:55:14;12.02;;;6.32;;
26536;SDS011;14204;51.262;5.488;2024-02-21T09:57:41;14.18;;;6.80;;
26536;SDS011;14204;51.262;5.488;2024-02-21T10:00:09;11.45;;;5.78;;
26536;SDS011;14204;51.262;5.488;2024-02-21T10:02:35;17.35;;;6.60;;
26536;SDS011;14204;51.262;5.488;2024-02-21T10:05:01;15.43;;;5.68;;
26536;SDS011;14204;51.262;5.488;2024-02-21T10:07:29;11.10;;;5.05;;
26536;SDS011;14204;51.262;5.488;2024-02-21T10:10:04;9.23;;;5.22;;
26536;SDS011;14204;51.262;5.488;2024-02-21T10:12:31;14.02;;;5.60;;
26536;SDS011;14204;51.262;5.488;2024-02-21T10:15:03;14.60;;;5.72;;
26536;SDS011;14204;51.262;5.488;2024-02-21T10:19:55;12.38;;;5.82;;
26536;SDS011;14204;51.262;5.488;2024-02-21T10:22:31;13.40;;;5.70;;
26536;SDS011;14204;51.262;5.488;2024-02-21T10:25:09;14.68;;;6.18;;
26536;SDS011;14204;51.262;5.488;2024-02-21T10:27:36;10.93;;;5.80;;
26536;SDS011;14204;51.262;5.488;2024-02-21T10:30:04;12.10;;;6.03;;
26536;SDS011;14204;51.262;5.488;2024-02-21T10:32:33;11.43;;;5.68;;
26536;SDS011;14204;51.262;5.488;2024-02-21T10:35:02;13.40;;;5.68;;
26536;SDS011;14204;51.262;5.488;2024-02-21T10:37:32;14.23;;;5.60;;
26536;SDS011;14204;51.262;5.488;2024-02-21T10:39:58;11.80;;;5.10;;
26536;SDS011;14204;51.262;5.488;2024-02-21T10:42:25;11.85;;;5.18;;
26536;SDS011;14204;51.262;5.488;2024-02-21T10:45:00;15.43;;;5.55;;
26536;SDS011;14204;51.262;5.488;2024-02-21T10:47:29;13.65;;;6.07;;
26536;SDS011;14204;51.262;5.488;2024-02-21T10:50:02;10.77;;;5.18;;
26536;SDS011;14204;51.262;5.488;2024-02-21T10:52:38;13.32;;;5.78;;
26536;SDS011;14204;51.262;5.488;2024-02-21T10:55:26;12.85;;;5.35;;
26536;SDS011;14204;51.262;5.488;2024-02-21T10:58:01;10.73;;;5.57;;
26536;SDS011;14204;51.262;5.488;2024-02-21T11:00:28;12.18;;;5.50;;
26536;SDS011;14204;51.262;5.488;2024-02-21T11:02:56;11.43;;;6.25;;
26536;SDS011;14204;51.262;5.488;2024-02-21T11:05:23;14.95;;;5.95;;
26536;SDS011;14204;51.262;5.488;2024-02-21T11:07:50;10.77;;;5.70;;
26536;SDS011;14204;51.262;5.488;2024-02-21T11:10:23;11.80;;;5.15;;
26536;SDS011;14204;51.262;5.488;2024-02-21T11:12:53;12.00;;;4.97;;
26536;SDS011;14204;51.262;5.488;2024-02-21T11:15:33;9.35;;;5.22;;
26536;SDS011;14204;51.262;5.488;2024-02-21T11:17:59;14.65;;;5.30;;
26536;SDS011;14204;51.262;5.488;2024-02-21T11:20:34;14.18;;;5.60;;
26536;SDS011;14204;51.262;5.488;2024-02-21T11:23:00;12.80;;;5.57;;
26536;SDS011;14204;51.262;5.488;2024-02-21T11:25:26;10.15;;;5.38;;
26536;SDS011;14204;51.262;5.488;2024-02-21T11:28:03;14.50;;;5.97;;
26536;SDS011;14204;51.262;5.488;2024-02-21T11:30:30;14.90;;;5.15;;
26536;SDS011;14204;51.262;5.488;2024-02-21T11:33:00;9.98;;;5.55;;
26536;SDS011;14204;51.262;5.488;2024-02-21T11:35:26;9.52;;;4.47;;
26536;SDS011;14204;51.262;5.488;2024-02-21T11:38:11;12.32;;;4.82;;
26536;SDS011;14204;51.262;5.488;2024-02-21T11:40:43;14.65;;;5.10;;
26536;SDS011;14204;51.262;5.488;2024-02-21T11:43:10;10.90;;;5.10;;
26536;SDS011;14204;51.262;5.488;2024-02-21T11:45:36;12.15;;;4.72;;
26536;SDS011;14204;51.262;5.488;2024-02-21T11:48:01;10.27;;;6.00;;
26536;SDS011;14204;51.262;5.488;2024-02-21T11:50:30;10.50;;;4.93;;
26536;SDS011;14204;51.262;5.488;2024-02-21T11:52:56;10.50;;;4.80;;
26536;SDS011;14204;51.262;5.488;2024-02-21T11:55:22;13.30;;;5.07;;
26536;SDS011;14204;51.262;5.488;2024-02-21T11:57:48;9.52;;;4.82;;
26536;SDS011;14204;51.262;5.488;2024-02-21T12:00:18;12.43;;;5.90;;
26536;SDS011;14204;51.262;5.488;2024-02-21T12:02:49;12.98;;;5.03;;
26536;SDS011;14204;51.262;5.488;2024-02-21T12:05:15;10.80;;;4.85;;
26536;SDS011;14204;51.262;5.488;2024-02-21T12:07:43;10.23;;;4.80;;
26536;SDS011;14204;51.262;5.488;2024-02-21T12:10:10;11.55;;;4.85;;
26536;SDS011;14204;51.262;5.488;2024-02-21T12:12:39;10.93;;;5.07;;
26536;SDS011;14204;51.262;5.488;2024-02-21T12:15:07;10.43;;;4.50;;
26536;SDS011;14204;51.262;5.488;2024-02-21T12:17:34;10.95;;;4.32;;
26536;SDS011;14204;51.262;5.488;2024-02-21T12:20:00;12.30;;;4.60;;
26536;SDS011;14204;51.262;5.488;2024-02-21T12:22:29;10.50;;;4.63;;
26536;SDS011;14204;51.262;5.488;2024-02-21T12:24:57;10.90;;;4.68;;
26536;SDS011;14204;51.262;5.488;2024-02-21T12:27:23;11.75;;;4.57;;
26536;SDS011;14204;51.262;5.488;2024-02-21T12:29:50;10.27;;;4.30;;
26536;SDS011;14204;51.262;5.488;2024-02-21T12:32:15;11.95;;;4.13;;
26536;SDS011;14204;51.262;5.488;2024-02-21T12:34:41;10.10;;;4.07;;
26536;SDS011;14204;51.262;5.488;2024-02-21T12:37:07;9.70;;;4.63;;
26536;SDS011;14204;51.262;5.488;2024-02-21T12:39:33;8.32;;;3.45;;
26536;SDS011;14204;51.262;5.488;2024-02-21T12:41:59;11.15;;;4.07;;
26536;SDS011;14204;51.262;5.488;2024-02-21T12:44:24;11.15;;;4.40;;
26536;SDS011;14204;51.262;5.488;2024-02-21T12:46:50;7.75;;;3.30;;
26536;SDS011;14204;51.262;5.488;2024-02-21T12:49:18;8.60;;;4.03;;
26536;SDS011;14204;51.262;5.488;2024-02-21T12:51:44;9.80;;;4.03;;
26536;SDS011;14204;51.262;5.488;2024-02-21T12:54:11;9.85;;;4.25;;
26536;SDS011;14204;51.262;5.488;2024-02-21T12:56:37;13.95;;;3.90;;
26536;SDS011;14204;51.262;5.488;2024-02-21T12:59:04;11.95;;;4.63;;
26536;SDS011;14204;51.262;5.488;2024-02-21T13:01:30;15.52;;;4.20;;
26536;SDS011;14204;51.262;5.488;2024-02-21T13:03:57;10.10;;;4.40;;
26536;SDS011;14204;51.262;5.488;2024-02-21T13:06:25;9.02;;;3.88;;
26536;SDS011;14204;51.262;5.488;2024-02-21T13:08:51;13.50;;;4.78;;
26536;SDS011;14204;51.262;5.488;2024-02-21T13:11:17;9.98;;;4.50;;
26536;SDS011;14204;51.262;5.488;2024-02-21T13:13:42;10.68;;;4.07;;
26536;SDS011;14204;51.262;5.488;2024-02-21T13:16:08;10.90;;;3.92;;
26536;SDS011;14204;51.262;5.488;2024-02-21T13:18:35;9.50;;;4.40;;
26536;SDS011;14204;51.262;5.488;2024-02-21T13:21:03;10.90;;;4.38;;
26536;SDS011;14204;51.262;5.488;2024-02-21T13:23:30;17.33;;;4.68;;
26536;SDS011;14204;51.262;5.488;2024-02-21T13:25:55;15.13;;;4.40;;
26536;SDS011;14204;51.262;5.488;2024-02-21T13:28:21;6.43;;;3.53;;
26536;SDS011;14204;51.262;5.488;2024-02-21T13:30:47;8.68;;;3.50;;
26536;SDS011;14204;51.262;5.488;2024-02-21T13:33:13;10.80;;;3.55;;
26536;SDS011;14204;51.262;5.488;2024-02-21T13:35:38;8.02;;;3.47;;
26536;SDS011;14204;51.262;5.488;2024-02-21T13:38:04;7.05;;;3.05;;
26536;SDS011;14204;51.262;5.488;2024-02-21T13:40:30;8.43;;;3.45;;
26536;SDS011;14204;51.262;5.488;2024-02-21T13:42:56;10.18;;;4.00;;
26536;SDS011;14204;51.262;5.488;2024-02-21T13:45:22;9.82;;;3.80;;
26536;SDS011;14204;51.262;5.488;2024-02-21T13:47:47;10.63;;;3.97;;
26536;SDS011;14204;51.262;5.488;2024-02-21T13:50:13;9.00;;;3.50;;
26536;SDS011;14204;51.262;5.488;2024-02-21T13:52:42;5.95;;;3.13;;
26536;SDS011;14204;51.262;5.488;2024-02-21T13:55:08;11.10;;;3.35;;
26536;SDS011;14204;51.262;5.488;2024-02-21T13:57:37;5.07;;;2.88;;
26536;SDS011;14204;51.262;5.488;2024-02-21T14:00:03;8.32;;;3.20;;
26536;SDS011;14204;51.262;5.488;2024-02-21T14:02:30;8.07;;;3.47;;
26536;SDS011;14204;51.262;5.488;2024-02-21T14:04:55;9.13;;;3.22;;
26536;SDS011;14204;51.262;5.488;2024-02-21T14:07:21;7.07;;;3.20;;
26536;SDS011;14204;51.262;5.488;2024-02-21T14:09:47;7.70;;;2.95;;
26536;SDS011;14204;51.262;5.488;2024-02-21T14:12:12;7.65;;;3.17;;
26536;SDS011;14204;51.262;5.488;2024-02-21T14:14:38;5.80;;;3.22;;
26536;SDS011;14204;51.262;5.488;2024-02-21T14:17:04;6.65;;;3.15;;
26536;SDS011;14204;51.262;5.488;2024-02-21T14:19:30;5.88;;;3.10;;
26536;SDS011;14204;51.262;5.488;2024-02-21T14:21:55;7.13;;;3.40;;
26536;SDS011;14204;51.262;5.488;2024-02-21T14:24:22;8.60;;;2.80;;
26536;SDS011;14204;51.262;5.488;2024-02-21T14:26:48;5.22;;;3.00;;
26536;SDS011;14204;51.262;5.488;2024-02-21T14:29:14;6.45;;;3.45;;
26536;SDS011;14204;51.262;5.488;2024-02-21T14:31:39;6.25;;;3.50;;